Victory City, Texas
Current Conditions -  °F | °C
As of 2:53 PM on Thursday 18 Dec 2014 (Local Time) from KTXK Reporting Station
Haze Haze  
Wind Chill: 42°   Ceiling: 700
Heat Index: 46°   Visibility: 6mi
Dew Point: 43°   Wind: 7mph
Humidity: 89%   Direction: 40°NE
Pressure: 30.13"   Gusts: NA
Location:  33.474°N, 94.2882°W
Report Text: KTXK 182053Z 04006KT 6SM BR OVC007 08/06 A3013 RMK AO2 SLP204 T00780061 56016
Loading
Personal Weather Stations






























Interactive Weather Map New forecast layout! Learn more

10-Day Weather Forecast

Advertisements
Track Severe Weather on mobile